Terminal Aerodrome Forecast
Issued by NWS

Home | Current Version | Previous Version | Text Only | Print | Product List | Glossary On
Versions: 1 2 3 4 5 6 7 8 9 10 11 12 13 14 15 16 17 18 19 20 21 22 23
097
FTUS43 KPAH 191913 AAA
TAFCGI
TAF AMD
KCGI 191913Z 1919/2018 15005KT P6SM SCT006
      TEMPO 1919/1920 BKN006
     FM200000 15004KT P6SM BKN025
     FM200600 14003KT 4SM BR SCT010 BKN250
      TEMPO 2008/2012 2SM BR BKN010
     FM201500 15008KT P6SM BKN020=

USA.gov is the U.S. government's official web portal to all federal, state and local government web resources and services.